sensor_id;sensor_type;location;lat;lon;timestamp;P1;durP1;ratioP1;P2;durP2;ratioP2
11197;SDS011;5655;48.744;9.162;2023-08-24T00:01:25;8.13;;;4.95;;
11197;SDS011;5655;48.744;9.162;2023-08-24T00:03:50;7.90;;;4.47;;
11197;SDS011;5655;48.744;9.162;2023-08-24T00:06:16;5.18;;;4.45;;
11197;SDS011;5655;48.744;9.162;2023-08-24T00:08:41;6.82;;;4.70;;
11197;SDS011;5655;48.744;9.162;2023-08-24T00:11:07;7.25;;;4.35;;
11197;SDS011;5655;48.744;9.162;2023-08-24T00:13:32;7.05;;;4.38;;
11197;SDS011;5655;48.744;9.162;2023-08-24T00:15:58;5.80;;;3.60;;
11197;SDS011;5655;48.744;9.162;2023-08-24T00:18:24;6.90;;;4.22;;
11197;SDS011;5655;48.744;9.162;2023-08-24T00:20:49;12.90;;;4.55;;
11197;SDS011;5655;48.744;9.162;2023-08-24T00:23:16;9.02;;;4.28;;
11197;SDS011;5655;48.744;9.162;2023-08-24T00:25:43;7.88;;;4.07;;
11197;SDS011;5655;48.744;9.162;2023-08-24T00:28:08;4.22;;;3.83;;
11197;SDS011;5655;48.744;9.162;2023-08-24T00:30:33;5.72;;;4.03;;
11197;SDS011;5655;48.744;9.162;2023-08-24T00:32:59;5.28;;;4.00;;
11197;SDS011;5655;48.744;9.162;2023-08-24T00:35:24;8.65;;;4.00;;
11197;SDS011;5655;48.744;9.162;2023-08-24T00:37:50;6.18;;;3.83;;
11197;SDS011;5655;48.744;9.162;2023-08-24T00:40:15;5.60;;;3.63;;
11197;SDS011;5655;48.744;9.162;2023-08-24T00:42:42;5.20;;;4.07;;
11197;SDS011;5655;48.744;9.162;2023-08-24T00:45:09;4.88;;;3.63;;
11197;SDS011;5655;48.744;9.162;2023-08-24T00:47:37;5.72;;;3.97;;
11197;SDS011;5655;48.744;9.162;2023-08-24T00:50:03;4.70;;;3.80;;
11197;SDS011;5655;48.744;9.162;2023-08-24T00:52:30;6.25;;;4.53;;
11197;SDS011;5655;48.744;9.162;2023-08-24T00:54:57;9.93;;;4.50;;
11197;SDS011;5655;48.744;9.162;2023-08-24T00:57:24;7.80;;;5.40;;
11197;SDS011;5655;48.744;9.162;2023-08-24T00:59:49;5.50;;;4.53;;
11197;SDS011;5655;48.744;9.162;2023-08-24T01:02:14;7.07;;;5.35;;
11197;SDS011;5655;48.744;9.162;2023-08-24T01:04:43;9.15;;;5.95;;
11197;SDS011;5655;48.744;9.162;2023-08-24T01:07:09;7.60;;;5.70;;
11197;SDS011;5655;48.744;9.162;2023-08-24T01:09:35;13.45;;;6.10;;
11197;SDS011;5655;48.744;9.162;2023-08-24T01:12:28;10.35;;;6.63;;
11197;SDS011;5655;48.744;9.162;2023-08-24T01:15:08;7.63;;;6.05;;
11197;SDS011;5655;48.744;9.162;2023-08-24T01:17:39;9.48;;;6.18;;
11197;SDS011;5655;48.744;9.162;2023-08-24T01:20:08;8.85;;;6.45;;
11197;SDS011;5655;48.744;9.162;2023-08-24T01:22:46;7.53;;;6.70;;
11197;SDS011;5655;48.744;9.162;2023-08-24T01:25:16;10.25;;;7.15;;
11197;SDS011;5655;48.744;9.162;2023-08-24T01:27:57;9.43;;;6.70;;
11197;SDS011;5655;48.744;9.162;2023-08-24T01:30:23;7.50;;;6.75;;
11197;SDS011;5655;48.744;9.162;2023-08-24T01:32:56;7.07;;;6.40;;
11197;SDS011;5655;48.744;9.162;2023-08-24T01:35:21;7.40;;;6.32;;
11197;SDS011;5655;48.744;9.162;2023-08-24T01:37:46;10.32;;;6.45;;
11197;SDS011;5655;48.744;9.162;2023-08-24T01:42:52;12.45;;;7.55;;
11197;SDS011;5655;48.744;9.162;2023-08-24T01:45:22;8.80;;;6.65;;
11197;SDS011;5655;48.744;9.162;2023-08-24T01:47:52;9.55;;;6.93;;
11197;SDS011;5655;48.744;9.162;2023-08-24T01:50:20;9.32;;;7.40;;
11197;SDS011;5655;48.744;9.162;2023-08-24T01:52:45;7.60;;;6.90;;
11197;SDS011;5655;48.744;9.162;2023-08-24T01:55:10;9.90;;;7.72;;
11197;SDS011;5655;48.744;9.162;2023-08-24T01:57:36;11.00;;;7.65;;
11197;SDS011;5655;48.744;9.162;2023-08-24T02:00:02;12.18;;;7.82;;
11197;SDS011;5655;48.744;9.162;2023-08-24T02:02:31;9.25;;;7.90;;
11197;SDS011;5655;48.744;9.162;2023-08-24T02:04:58;8.80;;;7.70;;
11197;SDS011;5655;48.744;9.162;2023-08-24T02:07:23;8.90;;;7.05;;
11197;SDS011;5655;48.744;9.162;2023-08-24T02:09:48;7.70;;;6.88;;
11197;SDS011;5655;48.744;9.162;2023-08-24T02:12:14;8.73;;;6.82;;
11197;SDS011;5655;48.744;9.162;2023-08-24T02:14:39;11.70;;;7.65;;
11197;SDS011;5655;48.744;9.162;2023-08-24T02:17:04;11.18;;;6.47;;
11197;SDS011;5655;48.744;9.162;2023-08-24T02:19:29;12.15;;;7.82;;
11197;SDS011;5655;48.744;9.162;2023-08-24T02:21:55;11.48;;;6.78;;
11197;SDS011;5655;48.744;9.162;2023-08-24T02:24:20;9.02;;;6.82;;
11197;SDS011;5655;48.744;9.162;2023-08-24T02:26:45;7.75;;;6.78;;
11197;SDS011;5655;48.744;9.162;2023-08-24T02:29:11;8.20;;;6.32;;
11197;SDS011;5655;48.744;9.162;2023-08-24T02:31:36;8.45;;;7.07;;
11197;SDS011;5655;48.744;9.162;2023-08-24T02:34:01;8.55;;;6.13;;
11197;SDS011;5655;48.744;9.162;2023-08-24T02:36:27;6.47;;;5.88;;
11197;SDS011;5655;48.744;9.162;2023-08-24T02:38:53;8.80;;;5.95;;
11197;SDS011;5655;48.744;9.162;2023-08-24T02:41:19;9.10;;;5.97;;
11197;SDS011;5655;48.744;9.162;2023-08-24T02:43:44;11.10;;;6.35;;
11197;SDS011;5655;48.744;9.162;2023-08-24T02:46:09;7.15;;;6.10;;
11197;SDS011;5655;48.744;9.162;2023-08-24T02:48:35;6.97;;;6.28;;
11197;SDS011;5655;48.744;9.162;2023-08-24T02:51:02;8.27;;;5.38;;
11197;SDS011;5655;48.744;9.162;2023-08-24T02:53:28;10.77;;;5.75;;
11197;SDS011;5655;48.744;9.162;2023-08-24T02:55:54;7.47;;;5.97;;
11197;SDS011;5655;48.744;9.162;2023-08-24T02:58:20;7.07;;;5.80;;
11197;SDS011;5655;48.744;9.162;2023-08-24T03:00:46;7.80;;;5.40;;
11197;SDS011;5655;48.744;9.162;2023-08-24T03:03:11;8.60;;;5.57;;
11197;SDS011;5655;48.744;9.162;2023-08-24T03:05:38;6.90;;;5.10;;
11197;SDS011;5655;48.744;9.162;2023-08-24T03:08:03;6.30;;;5.20;;
11197;SDS011;5655;48.744;9.162;2023-08-24T03:10:29;7.55;;;5.20;;
11197;SDS011;5655;48.744;9.162;2023-08-24T03:12:55;7.78;;;5.25;;
11197;SDS011;5655;48.744;9.162;2023-08-24T03:15:20;6.43;;;5.30;;
11197;SDS011;5655;48.744;9.162;2023-08-24T03:17:46;5.28;;;4.78;;
11197;SDS011;5655;48.744;9.162;2023-08-24T03:20:12;5.80;;;5.03;;
11197;SDS011;5655;48.744;9.162;2023-08-24T03:22:37;6.15;;;5.43;;
11197;SDS011;5655;48.744;9.162;2023-08-24T03:25:05;8.30;;;5.68;;
11197;SDS011;5655;48.744;9.162;2023-08-24T03:27:31;8.57;;;5.40;;
11197;SDS011;5655;48.744;9.162;2023-08-24T03:29:57;7.95;;;5.20;;
11197;SDS011;5655;48.744;9.162;2023-08-24T03:32:22;6.03;;;4.97;;
11197;SDS011;5655;48.744;9.162;2023-08-24T03:34:48;6.82;;;5.13;;
11197;SDS011;5655;48.744;9.162;2023-08-24T03:37:13;5.32;;;4.75;;
11197;SDS011;5655;48.744;9.162;2023-08-24T03:39:39;6.88;;;4.70;;
11197;SDS011;5655;48.744;9.162;2023-08-24T03:42:05;5.35;;;4.43;;
11197;SDS011;5655;48.744;9.162;2023-08-24T03:44:31;5.47;;;4.82;;
11197;SDS011;5655;48.744;9.162;2023-08-24T03:46:57;6.45;;;4.80;;
11197;SDS011;5655;48.744;9.162;2023-08-24T03:49:22;5.80;;;5.00;;
11197;SDS011;5655;48.744;9.162;2023-08-24T03:51:48;6.50;;;5.10;;
11197;SDS011;5655;48.744;9.162;2023-08-24T03:54:13;5.88;;;5.05;;
11197;SDS011;5655;48.744;9.162;2023-08-24T03:56:38;5.97;;;5.38;;
11197;SDS011;5655;48.744;9.162;2023-08-24T03:59:04;6.25;;;5.35;;
11197;SDS011;5655;48.744;9.162;2023-08-24T04:01:29;7.57;;;5.45;;
11197;SDS011;5655;48.744;9.162;2023-08-24T04:03:55;7.55;;;5.53;;
11197;SDS011;5655;48.744;9.162;2023-08-24T04:06:20;7.72;;;5.68;;
11197;SDS011;5655;48.744;9.162;2023-08-24T04:08:46;7.90;;;6.20;;
11197;SDS011;5655;48.744;9.162;2023-08-24T04:11:11;6.97;;;6.28;;
11197;SDS011;5655;48.744;9.162;2023-08-24T04:13:36;11.68;;;6.57;;
11197;SDS011;5655;48.744;9.162;2023-08-24T04:16:02;12.65;;;6.68;;
11197;SDS011;5655;48.744;9.162;2023-08-24T04:18:28;7.13;;;6.20;;
11197;SDS011;5655;48.744;9.162;2023-08-24T04:20:54;7.75;;;6.95;;
11197;SDS011;5655;48.744;9.162;2023-08-24T04:23:23;10.20;;;7.00;;
11197;SDS011;5655;48.744;9.162;2023-08-24T04:25:52;9.65;;;7.40;;
11197;SDS011;5655;48.744;9.162;2023-08-24T04:28:18;9.40;;;7.50;;
11197;SDS011;5655;48.744;9.162;2023-08-24T04:30:50;8.80;;;7.60;;
11197;SDS011;5655;48.744;9.162;2023-08-24T04:33:19;9.52;;;7.32;;
11197;SDS011;5655;48.744;9.162;2023-08-24T04:35:47;9.80;;;7.80;;
11197;SDS011;5655;48.744;9.162;2023-08-24T04:38:14;9.60;;;7.80;;
11197;SDS011;5655;48.744;9.162;2023-08-24T04:40:53;9.93;;;8.23;;
11197;SDS011;5655;48.744;9.162;2023-08-24T04:43:20;11.02;;;8.35;;
11197;SDS011;5655;48.744;9.162;2023-08-24T04:45:46;12.48;;;8.15;;
11197;SDS011;5655;48.744;9.162;2023-08-24T04:48:13;11.55;;;8.45;;
11197;SDS011;5655;48.744;9.162;2023-08-24T04:50:39;9.10;;;8.20;;
11197;SDS011;5655;48.744;9.162;2023-08-24T04:53:06;9.60;;;8.60;;
11197;SDS011;5655;48.744;9.162;2023-08-24T04:55:32;9.13;;;8.23;;
11197;SDS011;5655;48.744;9.162;2023-08-24T04:57:57;9.30;;;8.40;;
11197;SDS011;5655;48.744;9.162;2023-08-24T05:00:22;10.65;;;8.45;;
11197;SDS011;5655;48.744;9.162;2023-08-24T05:02:48;13.10;;;8.60;;
11197;SDS011;5655;48.744;9.162;2023-08-24T05:05:13;10.05;;;8.63;;
11197;SDS011;5655;48.744;9.162;2023-08-24T05:07:39;10.18;;;8.68;;
11197;SDS011;5655;48.744;9.162;2023-08-24T05:10:05;9.82;;;7.90;;
11197;SDS011;5655;48.744;9.162;2023-08-24T05:12:31;11.88;;;9.13;;
11197;SDS011;5655;48.744;9.162;2023-08-24T05:14:58;10.43;;;8.50;;
11197;SDS011;5655;48.744;9.162;2023-08-24T05:17:24;9.07;;;8.13;;
11197;SDS011;5655;48.744;9.162;2023-08-24T05:19:51;12.43;;;8.25;;
11197;SDS011;5655;48.744;9.162;2023-08-24T05:22:18;10.55;;;7.60;;
11197;SDS011;5655;48.744;9.162;2023-08-24T05:24:43;8.77;;;7.90;;
11197;SDS011;5655;48.744;9.162;2023-08-24T05:27:09;9.65;;;8.48;;
11197;SDS011;5655;48.744;9.162;2023-08-24T05:29:34;9.10;;;7.68;;
11197;SDS011;5655;48.744;9.162;2023-08-24T05:31:59;8.20;;;7.40;;
11197;SDS011;5655;48.744;9.162;2023-08-24T05:34:25;9.05;;;8.00;;
11197;SDS011;5655;48.744;9.162;2023-08-24T05:36:50;9.52;;;7.97;;
11197;SDS011;5655;48.744;9.162;2023-08-24T05:39:16;10.93;;;7.82;;
11197;SDS011;5655;48.744;9.162;2023-08-24T05:41:41;10.13;;;7.15;;
11197;SDS011;5655;48.744;9.162;2023-08-24T05:44:06;11.80;;;7.20;;
11197;SDS011;5655;48.744;9.162;2023-08-24T05:46:32;7.85;;;6.82;;
11197;SDS011;5655;48.744;9.162;2023-08-24T05:48:57;7.57;;;6.88;;
11197;SDS011;5655;48.744;9.162;2023-08-24T05:51:24;9.30;;;6.70;;
11197;SDS011;5655;48.744;9.162;2023-08-24T05:53:49;11.43;;;6.70;;
11197;SDS011;5655;48.744;9.162;2023-08-24T05:56:15;9.68;;;7.07;;
11197;SDS011;5655;48.744;9.162;2023-08-24T05:58:40;8.48;;;7.40;;
11197;SDS011;5655;48.744;9.162;2023-08-24T06:01:06;6.93;;;6.22;;
11197;SDS011;5655;48.744;9.162;2023-08-24T06:03:31;8.85;;;6.85;;
11197;SDS011;5655;48.744;9.162;2023-08-24T06:06:03;9.20;;;7.28;;
11197;SDS011;5655;48.744;9.162;2023-08-24T06:08:29;11.85;;;6.50;;
11197;SDS011;5655;48.744;9.162;2023-08-24T06:10:55;8.68;;;6.57;;
11197;SDS011;5655;48.744;9.162;2023-08-24T06:13:21;8.48;;;6.35;;
11197;SDS011;5655;48.744;9.162;2023-08-24T06:15:46;12.70;;;6.97;;
11197;SDS011;5655;48.744;9.162;2023-08-24T06:18:12;11.75;;;6.00;;
11197;SDS011;5655;48.744;9.162;2023-08-24T06:20:37;10.98;;;6.65;;
11197;SDS011;5655;48.744;9.162;2023-08-24T06:23:02;8.05;;;6.03;;
11197;SDS011;5655;48.744;9.162;2023-08-24T06:25:28;9.38;;;6.18;;
11197;SDS011;5655;48.744;9.162;2023-08-24T06:27:53;7.35;;;6.07;;
11197;SDS011;5655;48.744;9.162;2023-08-24T06:30:18;7.68;;;5.88;;
11197;SDS011;5655;48.744;9.162;2023-08-24T06:32:44;7.50;;;5.88;;
11197;SDS011;5655;48.744;9.162;2023-08-24T06:35:09;7.63;;;5.97;;
11197;SDS011;5655;48.744;9.162;2023-08-24T06:37:39;9.23;;;5.93;;
11197;SDS011;5655;48.744;9.162;2023-08-24T06:40:05;7.13;;;6.03;;
11197;SDS011;5655;48.744;9.162;2023-08-24T06:42:30;11.23;;;6.43;;
11197;SDS011;5655;48.744;9.162;2023-08-24T06:44:56;10.23;;;6.20;;
11197;SDS011;5655;48.744;9.162;2023-08-24T06:47:21;6.55;;;5.88;;
11197;SDS011;5655;48.744;9.162;2023-08-24T06:49:46;8.27;;;5.82;;
11197;SDS011;5655;48.744;9.162;2023-08-24T06:52:12;7.35;;;6.03;;
11197;SDS011;5655;48.744;9.162;2023-08-24T06:54:37;8.35;;;6.10;;
11197;SDS011;5655;48.744;9.162;2023-08-24T06:57:02;6.80;;;5.63;;
11197;SDS011;5655;48.744;9.162;2023-08-24T06:59:28;10.05;;;5.53;;
11197;SDS011;5655;48.744;9.162;2023-08-24T07:01:54;7.05;;;5.40;;
11197;SDS011;5655;48.744;9.162;2023-08-24T07:04:19;7.05;;;4.90;;
11197;SDS011;5655;48.744;9.162;2023-08-24T07:06:44;9.30;;;5.68;;
11197;SDS011;5655;48.744;9.162;2023-08-24T07:09:10;8.45;;;6.30;;
11197;SDS011;5655;48.744;9.162;2023-08-24T07:11:35;9.48;;;5.65;;
11197;SDS011;5655;48.744;9.162;2023-08-24T07:14:00;8.90;;;5.43;;
11197;SDS011;5655;48.744;9.162;2023-08-24T07:16:26;7.68;;;5.53;;
11197;SDS011;5655;48.744;9.162;2023-08-24T07:18:51;6.50;;;5.28;;
11197;SDS011;5655;48.744;9.162;2023-08-24T07:21:16;7.53;;;5.53;;
11197;SDS011;5655;48.744;9.162;2023-08-24T07:23:42;5.88;;;5.10;;
11197;SDS011;5655;48.744;9.162;2023-08-24T07:26:08;7.55;;;5.47;;
11197;SDS011;5655;48.744;9.162;2023-08-24T07:28:34;8.88;;;5.50;;
11197;SDS011;5655;48.744;9.162;2023-08-24T07:31:06;9.27;;;5.03;;
11197;SDS011;5655;48.744;9.162;2023-08-24T07:33:38;7.22;;;5.13;;
11197;SDS011;5655;48.744;9.162;2023-08-24T07:36:04;7.40;;;5.75;;
11197;SDS011;5655;48.744;9.162;2023-08-24T07:38:30;7.90;;;5.03;;
11197;SDS011;5655;48.744;9.162;2023-08-24T07:40:56;6.35;;;4.72;;
11197;SDS011;5655;48.744;9.162;2023-08-24T07:43:22;5.95;;;5.15;;
11197;SDS011;5655;48.744;9.162;2023-08-24T07:45:47;10.88;;;5.90;;
11197;SDS011;5655;48.744;9.162;2023-08-24T07:48:12;10.68;;;6.15;;
11197;SDS011;5655;48.744;9.162;2023-08-24T07:50:38;9.20;;;5.75;;
11197;SDS011;5655;48.744;9.162;2023-08-24T07:53:03;7.90;;;5.93;;
11197;SDS011;5655;48.744;9.162;2023-08-24T07:55:29;8.07;;;5.90;;
11197;SDS011;5655;48.744;9.162;2023-08-24T07:57:55;10.80;;;5.90;;
11197;SDS011;5655;48.744;9.162;2023-08-24T08:00:20;6.60;;;5.57;;
11197;SDS011;5655;48.744;9.162;2023-08-24T08:02:46;12.20;;;5.85;;
11197;SDS011;5655;48.744;9.162;2023-08-24T08:05:14;9.05;;;6.32;;
11197;SDS011;5655;48.744;9.162;2023-08-24T08:07:40;7.68;;;6.07;;
11197;SDS011;5655;48.744;9.162;2023-08-24T08:10:05;8.02;;;5.40;;
11197;SDS011;5655;48.744;9.162;2023-08-24T08:12:31;8.85;;;6.60;;
11197;SDS011;5655;48.744;9.162;2023-08-24T08:14:57;8.73;;;6.80;;
11197;SDS011;5655;48.744;9.162;2023-08-24T08:17:22;8.70;;;6.13;;
11197;SDS011;5655;48.744;9.162;2023-08-24T08:19:48;9.88;;;6.85;;
11197;SDS011;5655;48.744;9.162;2023-08-24T08:22:14;7.97;;;6.50;;
11197;SDS011;5655;48.744;9.162;2023-08-24T08:24:39;11.77;;;7.18;;
11197;SDS011;5655;48.744;9.162;2023-08-24T08:27:04;13.38;;;6.82;;
11197;SDS011;5655;48.744;9.162;2023-08-24T08:29:30;9.55;;;7.20;;
11197;SDS011;5655;48.744;9.162;2023-08-24T08:31:55;15.20;;;7.50;;
11197;SDS011;5655;48.744;9.162;2023-08-24T08:34:20;8.43;;;6.75;;
11197;SDS011;5655;48.744;9.162;2023-08-24T08:36:45;9.45;;;6.10;;
11197;SDS011;5655;48.744;9.162;2023-08-24T08:39:11;16.27;;;5.85;;
11197;SDS011;5655;48.744;9.162;2023-08-24T08:41:38;6.80;;;5.55;;
11197;SDS011;5655;48.744;9.162;2023-08-24T08:44:07;8.07;;;5.88;;
11197;SDS011;5655;48.744;9.162;2023-08-24T08:46:36;10.18;;;6.60;;
11197;SDS011;5655;48.744;9.162;2023-08-24T08:49:01;10.35;;;5.78;;
11197;SDS011;5655;48.744;9.162;2023-08-24T08:51:28;8.45;;;5.90;;
11197;SDS011;5655;48.744;9.162;2023-08-24T08:53:54;11.23;;;5.63;;
11197;SDS011;5655;48.744;9.162;2023-08-24T08:56:19;12.30;;;6.72;;
11197;SDS011;5655;48.744;9.162;2023-08-24T08:58:45;8.63;;;6.15;;
11197;SDS011;5655;48.744;9.162;2023-08-24T09:01:11;6.63;;;5.35;;
11197;SDS011;5655;48.744;9.162;2023-08-24T09:03:37;7.28;;;6.20;;
11197;SDS011;5655;48.744;9.162;2023-08-24T09:06:04;9.07;;;5.63;;
11197;SDS011;5655;48.744;9.162;2023-08-24T09:08:30;9.80;;;5.68;;
11197;SDS011;5655;48.744;9.162;2023-08-24T09:10:56;6.25;;;5.50;;
11197;SDS011;5655;48.744;9.162;2023-08-24T09:13:23;9.98;;;5.50;;
11197;SDS011;5655;48.744;9.162;2023-08-24T09:15:50;8.40;;;4.93;;
11197;SDS011;5655;48.744;9.162;2023-08-24T09:18:17;8.75;;;5.68;;
11197;SDS011;5655;48.744;9.162;2023-08-24T09:20:42;10.15;;;5.22;;
11197;SDS011;5655;48.744;9.162;2023-08-24T09:23:16;7.57;;;5.00;;
11197;SDS011;5655;48.744;9.162;2023-08-24T09:25:47;7.93;;;5.25;;
11197;SDS011;5655;48.744;9.162;2023-08-24T09:28:13;6.15;;;4.97;;
11197;SDS011;5655;48.744;9.162;2023-08-24T09:30:38;10.55;;;5.28;;
11197;SDS011;5655;48.744;9.162;2023-08-24T09:33:05;6.53;;;4.60;;
11197;SDS011;5655;48.744;9.162;2023-08-24T09:35:35;7.97;;;4.70;;
11197;SDS011;5655;48.744;9.162;2023-08-24T09:38:14;6.50;;;4.95;;
11197;SDS011;5655;48.744;9.162;2023-08-24T09:40:44;9.40;;;4.75;;
11197;SDS011;5655;48.744;9.162;2023-08-24T09:43:12;7.78;;;4.43;;
11197;SDS011;5655;48.744;9.162;2023-08-24T09:45:38;5.57;;;4.43;;
11197;SDS011;5655;48.744;9.162;2023-08-24T09:48:13;10.02;;;4.50;;
11197;SDS011;5655;48.744;9.162;2023-08-24T09:50:38;8.40;;;4.60;;
11197;SDS011;5655;48.744;9.162;2023-08-24T09:53:05;6.53;;;4.88;;
11197;SDS011;5655;48.744;9.162;2023-08-24T09:55:30;6.93;;;4.63;;
11197;SDS011;5655;48.744;9.162;2023-08-24T09:58:01;7.57;;;4.95;;
11197;SDS011;5655;48.744;9.162;2023-08-24T10:00:29;7.45;;;4.78;;
11197;SDS011;5655;48.744;9.162;2023-08-24T10:02:55;4.35;;;3.80;;
11197;SDS011;5655;48.744;9.162;2023-08-24T10:05:24;9.57;;;4.32;;
11197;SDS011;5655;48.744;9.162;2023-08-24T10:07:55;7.10;;;4.50;;
11197;SDS011;5655;48.744;9.162;2023-08-24T10:10:21;8.38;;;5.00;;
11197;SDS011;5655;48.744;9.162;2023-08-24T10:12:56;7.00;;;4.18;;
11197;SDS011;5655;48.744;9.162;2023-08-24T10:15:24;6.18;;;4.30;;
11197;SDS011;5655;48.744;9.162;2023-08-24T10:17:50;7.85;;;4.75;;
11197;SDS011;5655;48.744;9.162;2023-08-24T10:20:19;5.38;;;4.63;;
11197;SDS011;5655;48.744;9.162;2023-08-24T10:22:45;9.70;;;4.90;;
11197;SDS011;5655;48.744;9.162;2023-08-24T10:25:11;7.70;;;4.63;;
11197;SDS011;5655;48.744;9.162;2023-08-24T10:27:37;7.57;;;4.40;;
11197;SDS011;5655;48.744;9.162;2023-08-24T10:30:08;6.68;;;4.50;;
11197;SDS011;5655;48.744;9.162;2023-08-24T10:32:36;7.25;;;4.90;;
11197;SDS011;5655;48.744;9.162;2023-08-24T10:35:02;7.32;;;4.95;;
11197;SDS011;5655;48.744;9.162;2023-08-24T10:37:28;6.57;;;4.38;;
11197;SDS011;5655;48.744;9.162;2023-08-24T10:39:53;9.93;;;4.68;;
11197;SDS011;5655;48.744;9.162;2023-08-24T10:42:19;8.82;;;5.13;;
11197;SDS011;5655;48.744;9.162;2023-08-24T10:44:46;11.30;;;5.03;;
11197;SDS011;5655;48.744;9.162;2023-08-24T10:47:13;8.32;;;4.25;;
11197;SDS011;5655;48.744;9.162;2023-08-24T10:49:40;8.43;;;5.00;;
11197;SDS011;5655;48.744;9.162;2023-08-24T10:52:23;9.90;;;5.60;;
11197;SDS011;5655;48.744;9.162;2023-08-24T10:55:01;7.03;;;4.85;;
11197;SDS011;5655;48.744;9.162;2023-08-24T10:57:37;7.65;;;5.10;;
11197;SDS011;5655;48.744;9.162;2023-08-24T11:02:31;8.48;;;5.50;;
11197;SDS011;5655;48.744;9.162;2023-08-24T11:05:22;5.18;;;4.68;;
11197;SDS011;5655;48.744;9.162;2023-08-24T11:10:37;8.60;;;5.82;;
11197;SDS011;5655;48.744;9.162;2023-08-24T11:13:14;7.47;;;5.72;;
11197;SDS011;5655;48.744;9.162;2023-08-24T11:15:41;9.25;;;5.43;;
11197;SDS011;5655;48.744;9.162;2023-08-24T11:21:07;7.18;;;5.30;;
11197;SDS011;5655;48.744;9.162;2023-08-24T11:23:32;7.78;;;5.55;;
11197;SDS011;5655;48.744;9.162;2023-08-24T11:25:59;8.65;;;5.45;;
11197;SDS011;5655;48.744;9.162;2023-08-24T11:28:25;7.55;;;5.10;;
11197;SDS011;5655;48.744;9.162;2023-08-24T11:30:53;9.77;;;5.38;;
11197;SDS011;5655;48.744;9.162;2023-08-24T11:33:32;6.97;;;5.65;;
11197;SDS011;5655;48.744;9.162;2023-08-24T11:35:59;8.13;;;5.40;;
11197;SDS011;5655;48.744;9.162;2023-08-24T11:38:34;6.93;;;4.72;;
11197;SDS011;5655;48.744;9.162;2023-08-24T11:41:00;10.15;;;5.40;;
11197;SDS011;5655;48.744;9.162;2023-08-24T11:43:25;10.60;;;5.03;;
11197;SDS011;5655;48.744;9.162;2023-08-24T11:45:53;9.10;;;5.72;;
11197;SDS011;5655;48.744;9.162;2023-08-24T11:48:23;5.93;;;4.85;;
11197;SDS011;5655;48.744;9.162;2023-08-24T11:50:50;6.68;;;5.20;;
11197;SDS011;5655;48.744;9.162;2023-08-24T11:53:16;12.45;;;5.72;;
11197;SDS011;5655;48.744;9.162;2023-08-24T11:55:42;8.43;;;5.05;;
11197;SDS011;5655;48.744;9.162;2023-08-24T11:58:13;8.02;;;5.47;;
11197;SDS011;5655;48.744;9.162;2023-08-24T12:00:40;9.98;;;5.38;;
11197;SDS011;5655;48.744;9.162;2023-08-24T12:03:06;8.05;;;4.70;;
11197;SDS011;5655;48.744;9.162;2023-08-24T12:05:31;6.38;;;5.57;;
11197;SDS011;5655;48.744;9.162;2023-08-24T12:07:56;7.05;;;5.13;;
11197;SDS011;5655;48.744;9.162;2023-08-24T12:10:22;7.13;;;5.45;;
11197;SDS011;5655;48.744;9.162;2023-08-24T12:12:47;10.25;;;5.57;;
11197;SDS011;5655;48.744;9.162;2023-08-24T12:15:19;11.10;;;5.47;;
11197;SDS011;5655;48.744;9.162;2023-08-24T12:17:45;9.82;;;6.00;;
11197;SDS011;5655;48.744;9.162;2023-08-24T12:20:21;8.65;;;5.15;;
11197;SDS011;5655;48.744;9.162;2023-08-24T12:22:54;11.68;;;5.72;;
11197;SDS011;5655;48.744;9.162;2023-08-24T12:25:23;14.10;;;6.57;;
11197;SDS011;5655;48.744;9.162;2023-08-24T12:27:52;8.70;;;5.57;;
11197;SDS011;5655;48.744;9.162;2023-08-24T12:30:32;6.28;;;5.03;;
11197;SDS011;5655;48.744;9.162;2023-08-24T12:33:07;6.90;;;5.32;;
11197;SDS011;5655;48.744;9.162;2023-08-24T12:35:33;8.73;;;4.95;;
11197;SDS011;5655;48.744;9.162;2023-08-24T12:37:58;7.53;;;5.05;;
11197;SDS011;5655;48.744;9.162;2023-08-24T12:40:23;9.30;;;5.55;;
11197;SDS011;5655;48.744;9.162;2023-08-24T12:42:50;8.63;;;5.03;;
11197;SDS011;5655;48.744;9.162;2023-08-24T12:45:15;7.55;;;4.95;;
11197;SDS011;5655;48.744;9.162;2023-08-24T12:47:40;6.57;;;4.93;;
11197;SDS011;5655;48.744;9.162;2023-08-24T12:50:06;13.18;;;5.40;;
11197;SDS011;5655;48.744;9.162;2023-08-24T12:52:32;9.48;;;5.00;;
11197;SDS011;5655;48.744;9.162;2023-08-24T12:54:57;8.60;;;5.28;;
11197;SDS011;5655;48.744;9.162;2023-08-24T12:57:22;7.70;;;5.22;;
11197;SDS011;5655;48.744;9.162;2023-08-24T12:59:49;11.13;;;5.65;;
11197;SDS011;5655;48.744;9.162;2023-08-24T13:02:14;10.10;;;5.47;;
11197;SDS011;5655;48.744;9.162;2023-08-24T13:04:40;9.30;;;5.00;;
11197;SDS011;5655;48.744;9.162;2023-08-24T13:07:05;8.50;;;5.13;;
11197;SDS011;5655;48.744;9.162;2023-08-24T13:09:30;7.97;;;5.40;;
11197;SDS011;5655;48.744;9.162;2023-08-24T13:11:56;10.30;;;5.45;;
11197;SDS011;5655;48.744;9.162;2023-08-24T13:14:21;10.63;;;4.97;;
11197;SDS011;5655;48.744;9.162;2023-08-24T13:16:46;9.48;;;5.57;;
11197;SDS011;5655;48.744;9.162;2023-08-24T13:19:13;7.45;;;4.80;;
11197;SDS011;5655;48.744;9.162;2023-08-24T13:21:38;13.35;;;5.70;;
11197;SDS011;5655;48.744;9.162;2023-08-24T13:24:04;8.90;;;5.57;;
11197;SDS011;5655;48.744;9.162;2023-08-24T13:26:29;10.95;;;5.05;;
11197;SDS011;5655;48.744;9.162;2023-08-24T13:28:54;8.18;;;5.00;;
11197;SDS011;5655;48.744;9.162;2023-08-24T13:31:21;10.07;;;5.00;;
11197;SDS011;5655;48.744;9.162;2023-08-24T13:33:46;7.72;;;5.20;;
11197;SDS011;5655;48.744;9.162;2023-08-24T13:36:11;11.48;;;5.25;;
11197;SDS011;5655;48.744;9.162;2023-08-24T13:38:37;10.88;;;4.80;;
11197;SDS011;5655;48.744;9.162;2023-08-24T13:41:02;12.77;;;5.40;;
11197;SDS011;5655;48.744;9.162;2023-08-24T13:43:28;11.77;;;5.50;;
11197;SDS011;5655;48.744;9.162;2023-08-24T13:45:54;13.63;;;5.38;;
11197;SDS011;5655;48.744;9.162;2023-08-24T13:48:19;11.57;;;5.32;;
11197;SDS011;5655;48.744;9.162;2023-08-24T13:50:49;10.43;;;4.78;;
11197;SDS011;5655;48.744;9.162;2023-08-24T13:53:17;11.98;;;5.03;;
11197;SDS011;5655;48.744;9.162;2023-08-24T13:55:43;10.43;;;4.90;;
11197;SDS011;5655;48.744;9.162;2023-08-24T13:58:08;13.07;;;5.10;;
11197;SDS011;5655;48.744;9.162;2023-08-24T14:00:33;13.15;;;4.75;;
11197;SDS011;5655;48.744;9.162;2023-08-24T14:02:59;10.43;;;4.72;;
11197;SDS011;5655;48.744;9.162;2023-08-24T14:05:24;15.43;;;4.75;;
11197;SDS011;5655;48.744;9.162;2023-08-24T14:07:49;11.48;;;5.20;;
11197;SDS011;5655;48.744;9.162;2023-08-24T14:10:15;10.63;;;4.97;;
11197;SDS011;5655;48.744;9.162;2023-08-24T14:12:41;17.35;;;4.25;;
11197;SDS011;5655;48.744;9.162;2023-08-24T14:15:06;10.68;;;3.90;;
11197;SDS011;5655;48.744;9.162;2023-08-24T14:17:32;14.27;;;4.72;;
11197;SDS011;5655;48.744;9.162;2023-08-24T14:19:57;13.45;;;4.80;;
11197;SDS011;5655;48.744;9.162;2023-08-24T14:22:25;9.43;;;3.75;;
11197;SDS011;5655;48.744;9.162;2023-08-24T14:24:50;14.52;;;4.75;;
11197;SDS011;5655;48.744;9.162;2023-08-24T14:27:16;11.50;;;4.70;;
11197;SDS011;5655;48.744;9.162;2023-08-24T14:29:41;10.15;;;4.35;;
11197;SDS011;5655;48.744;9.162;2023-08-24T14:32:06;10.27;;;4.47;;
11197;SDS011;5655;48.744;9.162;2023-08-24T14:34:31;18.10;;;4.68;;
11197;SDS011;5655;48.744;9.162;2023-08-24T14:36:57;12.82;;;4.80;;
11197;SDS011;5655;48.744;9.162;2023-08-24T14:39:22;9.70;;;4.57;;
11197;SDS011;5655;48.744;9.162;2023-08-24T14:41:47;13.02;;;4.75;;
11197;SDS011;5655;48.744;9.162;2023-08-24T14:44:13;10.60;;;4.68;;
11197;SDS011;5655;48.744;9.162;2023-08-24T14:46:38;10.68;;;4.80;;
11197;SDS011;5655;48.744;9.162;2023-08-24T14:49:04;15.85;;;4.72;;
11197;SDS011;5655;48.744;9.162;2023-08-24T14:51:29;11.60;;;4.95;;
11197;SDS011;5655;48.744;9.162;2023-08-24T14:53:54;9.70;;;4.38;;
11197;SDS011;5655;48.744;9.162;2023-08-24T14:56:19;10.85;;;4.25;;
11197;SDS011;5655;48.744;9.162;2023-08-24T14:58:45;9.73;;;5.07;;
11197;SDS011;5655;48.744;9.162;2023-08-24T15:01:10;15.05;;;4.97;;
11197;SDS011;5655;48.744;9.162;2023-08-24T15:03:36;19.25;;;5.25;;
11197;SDS011;5655;48.744;9.162;2023-08-24T15:06:02;9.38;;;4.82;;